sensor_id;sensor_type;location;lat;lon;timestamp;P1;durP1;ratioP1;P2;durP2;ratioP2
19059;SDS011;9663;48.996;8.334;2022-10-31T00:00:44;4.97;;;1.60;;
19059;SDS011;9663;48.996;8.334;2022-10-31T00:03:11;3.90;;;1.60;;
19059;SDS011;9663;48.996;8.334;2022-10-31T00:05:40;3.63;;;1.30;;
19059;SDS011;9663;48.996;8.334;2022-10-31T00:08:16;3.45;;;1.48;;
19059;SDS011;9663;48.996;8.334;2022-10-31T00:10:43;3.35;;;1.35;;
19059;SDS011;9663;48.996;8.334;2022-10-31T00:13:11;3.58;;;1.40;;
19059;SDS011;9663;48.996;8.334;2022-10-31T00:15:38;3.38;;;1.48;;
19059;SDS011;9663;48.996;8.334;2022-10-31T00:18:06;3.60;;;1.40;;
19059;SDS011;9663;48.996;8.334;2022-10-31T00:20:33;3.10;;;1.20;;
19059;SDS011;9663;48.996;8.334;2022-10-31T00:23:02;3.53;;;1.48;;
19059;SDS011;9663;48.996;8.334;2022-10-31T00:25:32;5.85;;;1.75;;
19059;SDS011;9663;48.996;8.334;2022-10-31T00:28:02;3.40;;;1.17;;
19059;SDS011;9663;48.996;8.334;2022-10-31T00:30:31;4.43;;;1.50;;
19059;SDS011;9663;48.996;8.334;2022-10-31T00:32:58;3.13;;;1.30;;
19059;SDS011;9663;48.996;8.334;2022-10-31T00:35:23;3.63;;;1.30;;
19059;SDS011;9663;48.996;8.334;2022-10-31T00:37:49;2.90;;;1.05;;
19059;SDS011;9663;48.996;8.334;2022-10-31T00:40:17;4.60;;;1.40;;
19059;SDS011;9663;48.996;8.334;2022-10-31T00:42:42;4.25;;;1.15;;
19059;SDS011;9663;48.996;8.334;2022-10-31T00:45:09;3.50;;;1.20;;
19059;SDS011;9663;48.996;8.334;2022-10-31T00:47:35;2.88;;;1.10;;
19059;SDS011;9663;48.996;8.334;2022-10-31T00:50:02;3.45;;;1.30;;
19059;SDS011;9663;48.996;8.334;2022-10-31T00:52:30;3.15;;;1.10;;
19059;SDS011;9663;48.996;8.334;2022-10-31T00:54:55;3.67;;;1.40;;
19059;SDS011;9663;48.996;8.334;2022-10-31T00:57:21;4.25;;;1.35;;
19059;SDS011;9663;48.996;8.334;2022-10-31T00:59:47;3.67;;;1.17;;
19059;SDS011;9663;48.996;8.334;2022-10-31T01:02:12;3.10;;;1.17;;
19059;SDS011;9663;48.996;8.334;2022-10-31T01:04:38;2.88;;;1.27;;
19059;SDS011;9663;48.996;8.334;2022-10-31T01:07:04;4.13;;;1.25;;
19059;SDS011;9663;48.996;8.334;2022-10-31T01:09:29;3.38;;;1.23;;
19059;SDS011;9663;48.996;8.334;2022-10-31T01:11:55;3.70;;;1.50;;
19059;SDS011;9663;48.996;8.334;2022-10-31T01:14:21;3.95;;;1.17;;
19059;SDS011;9663;48.996;8.334;2022-10-31T01:16:46;3.47;;;1.25;;
19059;SDS011;9663;48.996;8.334;2022-10-31T01:19:12;4.10;;;1.15;;
19059;SDS011;9663;48.996;8.334;2022-10-31T01:21:37;4.82;;;1.20;;
19059;SDS011;9663;48.996;8.334;2022-10-31T01:24:03;4.13;;;1.42;;
19059;SDS011;9663;48.996;8.334;2022-10-31T01:26:30;3.67;;;1.35;;
19059;SDS011;9663;48.996;8.334;2022-10-31T01:29:02;3.97;;;1.20;;
19059;SDS011;9663;48.996;8.334;2022-10-31T01:31:32;4.38;;;1.30;;
19059;SDS011;9663;48.996;8.334;2022-10-31T01:34:01;2.63;;;1.20;;
19059;SDS011;9663;48.996;8.334;2022-10-31T01:36:32;4.78;;;1.55;;
19059;SDS011;9663;48.996;8.334;2022-10-31T01:39:07;3.78;;;1.20;;
19059;SDS011;9663;48.996;8.334;2022-10-31T01:41:44;2.78;;;1.00;;
19059;SDS011;9663;48.996;8.334;2022-10-31T01:49:24;4.55;;;1.40;;
19059;SDS011;9663;48.996;8.334;2022-10-31T01:54:49;3.67;;;1.45;;
19059;SDS011;9663;48.996;8.334;2022-10-31T01:57:24;3.35;;;1.30;;
19059;SDS011;9663;48.996;8.334;2022-10-31T01:59:52;3.08;;;1.15;;
19059;SDS011;9663;48.996;8.334;2022-10-31T02:02:24;3.67;;;1.27;;
19059;SDS011;9663;48.996;8.334;2022-10-31T02:04:53;3.65;;;1.20;;
19059;SDS011;9663;48.996;8.334;2022-10-31T02:07:22;3.08;;;1.20;;
19059;SDS011;9663;48.996;8.334;2022-10-31T02:09:55;5.13;;;1.20;;
19059;SDS011;9663;48.996;8.334;2022-10-31T02:12:23;4.13;;;1.55;;
19059;SDS011;9663;48.996;8.334;2022-10-31T02:14:50;3.25;;;1.23;;
19059;SDS011;9663;48.996;8.334;2022-10-31T02:17:16;3.10;;;1.20;;
19059;SDS011;9663;48.996;8.334;2022-10-31T02:27:51;4.25;;;1.17;;
19059;SDS011;9663;48.996;8.334;2022-10-31T02:35:53;4.10;;;1.25;;
19059;SDS011;9663;48.996;8.334;2022-10-31T02:52:30;2.88;;;1.02;;
19059;SDS011;9663;48.996;8.334;2022-10-31T02:55:08;3.83;;;0.95;;
19059;SDS011;9663;48.996;8.334;2022-10-31T02:58:02;3.05;;;1.08;;
19059;SDS011;9663;48.996;8.334;2022-10-31T03:12:02;3.28;;;1.20;;
19059;SDS011;9663;48.996;8.334;2022-10-31T03:14:45;2.95;;;1.20;;
19059;SDS011;9663;48.996;8.334;2022-10-31T03:17:37;2.60;;;1.08;;
19059;SDS011;9663;48.996;8.334;2022-10-31T03:20:16;3.33;;;1.30;;
19059;SDS011;9663;48.996;8.334;2022-10-31T03:22:51;3.95;;;1.17;;
19059;SDS011;9663;48.996;8.334;2022-10-31T03:25:21;3.47;;;1.20;;
19059;SDS011;9663;48.996;8.334;2022-10-31T03:27:48;4.03;;;1.05;;
19059;SDS011;9663;48.996;8.334;2022-10-31T03:30:16;4.53;;;1.38;;
19059;SDS011;9663;48.996;8.334;2022-10-31T03:32:49;3.85;;;1.33;;
19059;SDS011;9663;48.996;8.334;2022-10-31T03:35:21;3.03;;;1.17;;
19059;SDS011;9663;48.996;8.334;2022-10-31T03:37:51;3.45;;;1.30;;
19059;SDS011;9663;48.996;8.334;2022-10-31T03:40:19;3.22;;;1.30;;
19059;SDS011;9663;48.996;8.334;2022-10-31T03:42:50;4.38;;;1.30;;
19059;SDS011;9663;48.996;8.334;2022-10-31T03:45:24;3.10;;;1.40;;
19059;SDS011;9663;48.996;8.334;2022-10-31T03:47:55;4.80;;;1.38;;
19059;SDS011;9663;48.996;8.334;2022-10-31T03:50:23;4.20;;;1.40;;
19059;SDS011;9663;48.996;8.334;2022-10-31T03:53:16;5.35;;;1.70;;
19059;SDS011;9663;48.996;8.334;2022-10-31T03:58:44;3.15;;;1.30;;
19059;SDS011;9663;48.996;8.334;2022-10-31T04:01:23;3.20;;;1.30;;
19059;SDS011;9663;48.996;8.334;2022-10-31T04:03:52;3.97;;;1.45;;
19059;SDS011;9663;48.996;8.334;2022-10-31T04:06:19;6.47;;;1.52;;
19059;SDS011;9663;48.996;8.334;2022-10-31T04:08:48;3.05;;;1.27;;
19059;SDS011;9663;48.996;8.334;2022-10-31T04:11:27;2.78;;;1.08;;
19059;SDS011;9663;48.996;8.334;2022-10-31T04:13:59;2.35;;;1.05;;
19059;SDS011;9663;48.996;8.334;2022-10-31T04:16:28;3.38;;;1.30;;
19059;SDS011;9663;48.996;8.334;2022-10-31T04:18:53;2.50;;;0.93;;
19059;SDS011;9663;48.996;8.334;2022-10-31T04:21:26;2.40;;;1.10;;
19059;SDS011;9663;48.996;8.334;2022-10-31T04:23:54;2.63;;;1.17;;
19059;SDS011;9663;48.996;8.334;2022-10-31T04:26:21;3.50;;;1.17;;
19059;SDS011;9663;48.996;8.334;2022-10-31T04:28:47;4.57;;;1.20;;
19059;SDS011;9663;48.996;8.334;2022-10-31T04:31:13;4.97;;;1.52;;
19059;SDS011;9663;48.996;8.334;2022-10-31T04:33:40;2.97;;;1.10;;
19059;SDS011;9663;48.996;8.334;2022-10-31T04:36:06;2.30;;;0.93;;
19059;SDS011;9663;48.996;8.334;2022-10-31T04:38:32;4.50;;;1.30;;
19059;SDS011;9663;48.996;8.334;2022-10-31T04:40:58;3.45;;;1.23;;
19059;SDS011;9663;48.996;8.334;2022-10-31T04:43:24;2.83;;;1.15;;
19059;SDS011;9663;48.996;8.334;2022-10-31T04:45:50;3.92;;;1.35;;
19059;SDS011;9663;48.996;8.334;2022-10-31T04:48:16;3.17;;;1.23;;
19059;SDS011;9663;48.996;8.334;2022-10-31T04:50:41;3.83;;;1.10;;
19059;SDS011;9663;48.996;8.334;2022-10-31T04:53:07;3.05;;;1.25;;
19059;SDS011;9663;48.996;8.334;2022-10-31T04:55:34;2.88;;;1.17;;
19059;SDS011;9663;48.996;8.334;2022-10-31T04:58:01;3.22;;;1.48;;
19059;SDS011;9663;48.996;8.334;2022-10-31T05:00:27;4.50;;;1.17;;
19059;SDS011;9663;48.996;8.334;2022-10-31T05:02:54;3.47;;;1.08;;
19059;SDS011;9663;48.996;8.334;2022-10-31T05:05:23;4.22;;;1.10;;
19059;SDS011;9663;48.996;8.334;2022-10-31T05:07:54;3.22;;;1.08;;
19059;SDS011;9663;48.996;8.334;2022-10-31T05:10:21;3.67;;;1.35;;
19059;SDS011;9663;48.996;8.334;2022-10-31T05:12:54;3.10;;;1.30;;
19059;SDS011;9663;48.996;8.334;2022-10-31T05:15:25;3.22;;;1.17;;
19059;SDS011;9663;48.996;8.334;2022-10-31T05:17:52;4.95;;;1.55;;
19059;SDS011;9663;48.996;8.334;2022-10-31T05:20:21;2.67;;;1.15;;
19059;SDS011;9663;48.996;8.334;2022-10-31T05:22:50;4.20;;;1.42;;
19059;SDS011;9663;48.996;8.334;2022-10-31T05:25:19;3.70;;;1.25;;
19059;SDS011;9663;48.996;8.334;2022-10-31T05:27:48;3.28;;;1.40;;
19059;SDS011;9663;48.996;8.334;2022-10-31T05:30:17;4.90;;;1.58;;
19059;SDS011;9663;48.996;8.334;2022-10-31T05:32:47;3.38;;;1.25;;
19059;SDS011;9663;48.996;8.334;2022-10-31T05:35:15;3.80;;;1.35;;
19059;SDS011;9663;48.996;8.334;2022-10-31T05:37:45;3.33;;;1.17;;
19059;SDS011;9663;48.996;8.334;2022-10-31T05:40:11;4.10;;;1.30;;
19059;SDS011;9663;48.996;8.334;2022-10-31T05:42:39;3.33;;;1.15;;
19059;SDS011;9663;48.996;8.334;2022-10-31T05:45:07;3.35;;;1.30;;
19059;SDS011;9663;48.996;8.334;2022-10-31T05:47:35;4.00;;;1.10;;
19059;SDS011;9663;48.996;8.334;2022-10-31T05:50:01;2.75;;;0.98;;
19059;SDS011;9663;48.996;8.334;2022-10-31T05:52:27;3.72;;;1.30;;
19059;SDS011;9663;48.996;8.334;2022-10-31T05:54:53;3.30;;;1.50;;
19059;SDS011;9663;48.996;8.334;2022-10-31T05:57:18;4.50;;;1.75;;
19059;SDS011;9663;48.996;8.334;2022-10-31T05:59:44;4.38;;;1.23;;
19059;SDS011;9663;48.996;8.334;2022-10-31T06:02:10;4.00;;;1.40;;
19059;SDS011;9663;48.996;8.334;2022-10-31T06:04:35;4.38;;;1.30;;
19059;SDS011;9663;48.996;8.334;2022-10-31T06:07:01;4.28;;;1.40;;
19059;SDS011;9663;48.996;8.334;2022-10-31T06:09:27;5.72;;;1.35;;
19059;SDS011;9663;48.996;8.334;2022-10-31T06:11:52;4.22;;;1.30;;
19059;SDS011;9663;48.996;8.334;2022-10-31T06:14:18;3.88;;;1.35;;
19059;SDS011;9663;48.996;8.334;2022-10-31T06:16:44;2.55;;;1.00;;
19059;SDS011;9663;48.996;8.334;2022-10-31T06:19:09;3.50;;;1.00;;
19059;SDS011;9663;48.996;8.334;2022-10-31T06:21:35;3.88;;;1.10;;
19059;SDS011;9663;48.996;8.334;2022-10-31T06:24:01;3.08;;;1.20;;
19059;SDS011;9663;48.996;8.334;2022-10-31T06:26:26;2.85;;;1.00;;
19059;SDS011;9663;48.996;8.334;2022-10-31T06:28:52;3.45;;;1.30;;
19059;SDS011;9663;48.996;8.334;2022-10-31T06:31:18;3.30;;;1.30;;
19059;SDS011;9663;48.996;8.334;2022-10-31T06:33:43;2.97;;;1.02;;
19059;SDS011;9663;48.996;8.334;2022-10-31T06:36:09;3.67;;;1.40;;
19059;SDS011;9663;48.996;8.334;2022-10-31T06:38:35;3.13;;;1.20;;
19059;SDS011;9663;48.996;8.334;2022-10-31T06:41:04;5.45;;;1.10;;
19059;SDS011;9663;48.996;8.334;2022-10-31T06:43:31;3.28;;;1.20;;
19059;SDS011;9663;48.996;8.334;2022-10-31T06:45:57;3.85;;;1.13;;
19059;SDS011;9663;48.996;8.334;2022-10-31T06:48:27;2.90;;;1.10;;
19059;SDS011;9663;48.996;8.334;2022-10-31T06:50:52;3.25;;;1.20;;
19059;SDS011;9663;48.996;8.334;2022-10-31T06:53:18;2.97;;;1.10;;
19059;SDS011;9663;48.996;8.334;2022-10-31T06:55:44;5.40;;;1.10;;
19059;SDS011;9663;48.996;8.334;2022-10-31T06:58:10;3.83;;;1.45;;
19059;SDS011;9663;48.996;8.334;2022-10-31T07:00:36;6.65;;;1.63;;
19059;SDS011;9663;48.996;8.334;2022-10-31T07:03:04;4.05;;;1.60;;
19059;SDS011;9663;48.996;8.334;2022-10-31T07:05:34;4.00;;;1.50;;
19059;SDS011;9663;48.996;8.334;2022-10-31T07:08:00;3.13;;;1.20;;
19059;SDS011;9663;48.996;8.334;2022-10-31T07:10:30;3.42;;;1.38;;
19059;SDS011;9663;48.996;8.334;2022-10-31T07:13:00;4.68;;;1.40;;
19059;SDS011;9663;48.996;8.334;2022-10-31T07:15:29;4.00;;;1.30;;
19059;SDS011;9663;48.996;8.334;2022-10-31T07:17:59;4.50;;;1.25;;
19059;SDS011;9663;48.996;8.334;2022-10-31T07:20:30;4.28;;;1.65;;
19059;SDS011;9663;48.996;8.334;2022-10-31T07:22:57;3.13;;;1.38;;
19059;SDS011;9663;48.996;8.334;2022-10-31T07:25:23;5.15;;;1.60;;
19059;SDS011;9663;48.996;8.334;2022-10-31T07:27:49;4.05;;;1.50;;
19059;SDS011;9663;48.996;8.334;2022-10-31T07:30:15;7.70;;;2.00;;
19059;SDS011;9663;48.996;8.334;2022-10-31T07:32:44;4.30;;;1.75;;
19059;SDS011;9663;48.996;8.334;2022-10-31T07:35:16;3.70;;;1.45;;
19059;SDS011;9663;48.996;8.334;2022-10-31T07:37:47;5.18;;;1.80;;
19059;SDS011;9663;48.996;8.334;2022-10-31T07:40:14;5.15;;;1.52;;
19059;SDS011;9663;48.996;8.334;2022-10-31T07:42:43;5.75;;;1.75;;
19059;SDS011;9663;48.996;8.334;2022-10-31T07:45:13;7.72;;;1.90;;
19059;SDS011;9663;48.996;8.334;2022-10-31T07:47:43;5.22;;;1.80;;
19059;SDS011;9663;48.996;8.334;2022-10-31T07:50:17;3.33;;;1.40;;
19059;SDS011;9663;48.996;8.334;2022-10-31T07:52:57;4.40;;;1.33;;
19059;SDS011;9663;48.996;8.334;2022-10-31T07:55:29;4.65;;;1.52;;
19059;SDS011;9663;48.996;8.334;2022-10-31T07:57:59;3.92;;;1.50;;
19059;SDS011;9663;48.996;8.334;2022-10-31T08:00:28;5.15;;;1.40;;
19059;SDS011;9663;48.996;8.334;2022-10-31T08:03:01;4.95;;;1.67;;
19059;SDS011;9663;48.996;8.334;2022-10-31T08:05:30;5.72;;;1.50;;
19059;SDS011;9663;48.996;8.334;2022-10-31T08:07:57;3.83;;;1.45;;
19059;SDS011;9663;48.996;8.334;2022-10-31T08:10:23;3.80;;;1.30;;
19059;SDS011;9663;48.996;8.334;2022-10-31T08:12:55;4.05;;;1.33;;
19059;SDS011;9663;48.996;8.334;2022-10-31T08:15:21;5.50;;;1.42;;
19059;SDS011;9663;48.996;8.334;2022-10-31T08:17:50;3.88;;;1.55;;
19059;SDS011;9663;48.996;8.334;2022-10-31T08:20:16;4.72;;;1.40;;
19059;SDS011;9663;48.996;8.334;2022-10-31T08:22:41;3.45;;;1.35;;
19059;SDS011;9663;48.996;8.334;2022-10-31T08:25:10;5.63;;;1.80;;
19059;SDS011;9663;48.996;8.334;2022-10-31T08:27:35;4.68;;;1.50;;
19059;SDS011;9663;48.996;8.334;2022-10-31T08:30:01;6.53;;;1.60;;
19059;SDS011;9663;48.996;8.334;2022-10-31T08:32:27;5.15;;;1.75;;
19059;SDS011;9663;48.996;8.334;2022-10-31T08:34:52;4.50;;;1.75;;
19059;SDS011;9663;48.996;8.334;2022-10-31T08:37:18;3.65;;;1.50;;
19059;SDS011;9663;48.996;8.334;2022-10-31T08:39:45;4.70;;;1.27;;
19059;SDS011;9663;48.996;8.334;2022-10-31T08:42:12;5.43;;;1.50;;
19059;SDS011;9663;48.996;8.334;2022-10-31T08:44:38;4.15;;;1.60;;
19059;SDS011;9663;48.996;8.334;2022-10-31T08:47:03;5.03;;;1.70;;
19059;SDS011;9663;48.996;8.334;2022-10-31T08:49:29;4.68;;;1.50;;
19059;SDS011;9663;48.996;8.334;2022-10-31T08:51:55;4.00;;;1.60;;
19059;SDS011;9663;48.996;8.334;2022-10-31T08:54:20;4.75;;;1.60;;
19059;SDS011;9663;48.996;8.334;2022-10-31T08:56:46;4.50;;;1.70;;
19059;SDS011;9663;48.996;8.334;2022-10-31T08:59:12;3.97;;;1.55;;
19059;SDS011;9663;48.996;8.334;2022-10-31T09:01:37;5.03;;;1.83;;
19059;SDS011;9663;48.996;8.334;2022-10-31T09:04:03;5.10;;;2.08;;
19059;SDS011;9663;48.996;8.334;2022-10-31T09:06:29;4.57;;;1.60;;
19059;SDS011;9663;48.996;8.334;2022-10-31T09:08:54;4.38;;;1.83;;
19059;SDS011;9663;48.996;8.334;2022-10-31T09:11:20;5.82;;;1.75;;
19059;SDS011;9663;48.996;8.334;2022-10-31T09:13:45;8.05;;;2.25;;
19059;SDS011;9663;48.996;8.334;2022-10-31T09:16:11;3.35;;;1.50;;
19059;SDS011;9663;48.996;8.334;2022-10-31T09:18:37;3.63;;;1.52;;
19059;SDS011;9663;48.996;8.334;2022-10-31T09:21:02;5.10;;;1.55;;
19059;SDS011;9663;48.996;8.334;2022-10-31T09:23:28;3.83;;;1.70;;
19059;SDS011;9663;48.996;8.334;2022-10-31T09:25:58;6.90;;;1.85;;
19059;SDS011;9663;48.996;8.334;2022-10-31T09:28:26;6.30;;;1.83;;
19059;SDS011;9663;48.996;8.334;2022-10-31T09:30:52;5.10;;;1.67;;
19059;SDS011;9663;48.996;8.334;2022-10-31T09:33:19;4.07;;;1.83;;
19059;SDS011;9663;48.996;8.334;2022-10-31T09:35:46;6.63;;;1.90;;
19059;SDS011;9663;48.996;8.334;2022-10-31T09:38:13;6.00;;;1.77;;
19059;SDS011;9663;48.996;8.334;2022-10-31T09:40:44;4.05;;;1.63;;
19059;SDS011;9663;48.996;8.334;2022-10-31T09:46:31;4.82;;;1.85;;
19059;SDS011;9663;48.996;8.334;2022-10-31T09:51:55;3.63;;;1.48;;
19059;SDS011;9663;48.996;8.334;2022-10-31T09:55:02;4.00;;;1.50;;
19059;SDS011;9663;48.996;8.334;2022-10-31T09:57:26;4.28;;;1.83;;
19059;SDS011;9663;48.996;8.334;2022-10-31T09:59:58;5.72;;;2.10;;
19059;SDS011;9663;48.996;8.334;2022-10-31T10:05:10;6.40;;;2.03;;
19059;SDS011;9663;48.996;8.334;2022-10-31T10:13:40;4.75;;;1.73;;
19059;SDS011;9663;48.996;8.334;2022-10-31T10:16:33;5.72;;;1.70;;
19059;SDS011;9663;48.996;8.334;2022-10-31T10:22:40;5.38;;;1.70;;
19059;SDS011;9663;48.996;8.334;2022-10-31T10:25:16;4.28;;;1.75;;
19059;SDS011;9663;48.996;8.334;2022-10-31T10:31:05;4.00;;;1.58;;
19059;SDS011;9663;48.996;8.334;2022-10-31T10:36:48;4.05;;;1.63;;
19059;SDS011;9663;48.996;8.334;2022-10-31T10:39:36;4.15;;;1.50;;
19059;SDS011;9663;48.996;8.334;2022-10-31T10:42:11;4.00;;;1.70;;
19059;SDS011;9663;48.996;8.334;2022-10-31T10:44:58;4.20;;;1.70;;
19059;SDS011;9663;48.996;8.334;2022-10-31T10:48:00;3.72;;;1.60;;
19059;SDS011;9663;48.996;8.334;2022-10-31T10:50:47;6.28;;;2.10;;
19059;SDS011;9663;48.996;8.334;2022-10-31T10:59:09;5.28;;;1.88;;
19059;SDS011;9663;48.996;8.334;2022-10-31T11:01:40;4.20;;;1.67;;
19059;SDS011;9663;48.996;8.334;2022-10-31T11:04:28;4.22;;;1.63;;
19059;SDS011;9663;48.996;8.334;2022-10-31T11:07:03;4.70;;;1.80;;
19059;SDS011;9663;48.996;8.334;2022-10-31T11:09:35;4.60;;;1.60;;
19059;SDS011;9663;48.996;8.334;2022-10-31T11:12:07;4.57;;;1.58;;
19059;SDS011;9663;48.996;8.334;2022-10-31T11:14:46;4.88;;;1.63;;
19059;SDS011;9663;48.996;8.334;2022-10-31T11:17:20;5.35;;;1.70;;
19059;SDS011;9663;48.996;8.334;2022-10-31T11:20:04;5.55;;;1.75;;
19059;SDS011;9663;48.996;8.334;2022-10-31T11:23:03;5.88;;;1.90;;
19059;SDS011;9663;48.996;8.334;2022-10-31T11:25:58;4.90;;;1.67;;
19059;SDS011;9663;48.996;8.334;2022-10-31T11:28:28;4.07;;;1.70;;
19059;SDS011;9663;48.996;8.334;2022-10-31T11:30:56;5.10;;;1.70;;
19059;SDS011;9663;48.996;8.334;2022-10-31T11:33:26;5.30;;;1.73;;
19059;SDS011;9663;48.996;8.334;2022-10-31T11:36:01;4.00;;;1.48;;
19059;SDS011;9663;48.996;8.334;2022-10-31T11:38:42;4.30;;;1.67;;
19059;SDS011;9663;48.996;8.334;2022-10-31T11:41:11;3.60;;;1.70;;
19059;SDS011;9663;48.996;8.334;2022-10-31T11:43:47;3.88;;;1.52;;
19059;SDS011;9663;48.996;8.334;2022-10-31T11:49:04;4.10;;;1.75;;
19059;SDS011;9663;48.996;8.334;2022-10-31T11:51:40;3.97;;;1.50;;
19059;SDS011;9663;48.996;8.334;2022-10-31T11:54:06;3.72;;;1.60;;
19059;SDS011;9663;48.996;8.334;2022-10-31T11:56:57;4.60;;;1.50;;
19059;SDS011;9663;48.996;8.334;2022-10-31T11:59:30;6.72;;;1.90;;
19059;SDS011;9663;48.996;8.334;2022-10-31T12:01:58;4.10;;;1.52;;
19059;SDS011;9663;48.996;8.334;2022-10-31T12:04:28;3.92;;;1.55;;
19059;SDS011;9663;48.996;8.334;2022-10-31T12:07:11;5.63;;;1.85;;
19059;SDS011;9663;48.996;8.334;2022-10-31T12:09:37;5.13;;;1.70;;
19059;SDS011;9663;48.996;8.334;2022-10-31T12:12:18;6.43;;;1.65;;
19059;SDS011;9663;48.996;8.334;2022-10-31T12:15:31;3.97;;;1.33;;
19059;SDS011;9663;48.996;8.334;2022-10-31T12:18:37;4.97;;;1.60;;
19059;SDS011;9663;48.996;8.334;2022-10-31T12:26:41;4.80;;;1.38;;
19059;SDS011;9663;48.996;8.334;2022-10-31T12:37:50;4.13;;;1.98;;
19059;SDS011;9663;48.996;8.334;2022-10-31T12:40:58;4.25;;;2.00;;
19059;SDS011;9663;48.996;8.334;2022-10-31T12:44:12;4.45;;;1.70;;
19059;SDS011;9663;48.996;8.334;2022-10-31T12:49:49;3.65;;;1.52;;
19059;SDS011;9663;48.996;8.334;2022-10-31T12:55:31;4.45;;;1.77;;
19059;SDS011;9663;48.996;8.334;2022-10-31T13:01:02;3.70;;;1.80;;
19059;SDS011;9663;48.996;8.334;2022-10-31T13:06:34;4.15;;;1.60;;
19059;SDS011;9663;48.996;8.334;2022-10-31T13:09:13;4.55;;;1.73;;
19059;SDS011;9663;48.996;8.334;2022-10-31T13:11:47;5.57;;;2.20;;
19059;SDS011;9663;48.996;8.334;2022-10-31T13:14:26;6.63;;;1.67;;
19059;SDS011;9663;48.996;8.334;2022-10-31T13:17:09;4.32;;;1.80;;
19059;SDS011;9663;48.996;8.334;2022-10-31T13:20:16;3.53;;;1.58;;
19059;SDS011;9663;48.996;8.334;2022-10-31T13:22:49;4.47;;;1.77;;
19059;SDS011;9663;48.996;8.334;2022-10-31T13:25:25;6.55;;;1.60;;
19059;SDS011;9663;48.996;8.334;2022-10-31T13:27:59;5.10;;;1.88;;
19059;SDS011;9663;48.996;8.334;2022-10-31T13:30:36;4.32;;;1.80;;
19059;SDS011;9663;48.996;8.334;2022-10-31T13:33:09;4.15;;;1.60;;
19059;SDS011;9663;48.996;8.334;2022-10-31T13:44:28;4.88;;;1.83;;
19059;SDS011;9663;48.996;8.334;2022-10-31T13:46:56;4.05;;;1.65;;
19059;SDS011;9663;48.996;8.334;2022-10-31T13:49:24;5.53;;;1.88;;
19059;SDS011;9663;48.996;8.334;2022-10-31T13:52:15;3.50;;;1.45;;
19059;SDS011;9663;48.996;8.334;2022-10-31T13:54:50;4.85;;;1.70;;
19059;SDS011;9663;48.996;8.334;2022-10-31T14:00:24;4.10;;;1.70;;
19059;SDS011;9663;48.996;8.334;2022-10-31T14:02:52;5.32;;;1.92;;
19059;SDS011;9663;48.996;8.334;2022-10-31T14:05:23;4.45;;;1.85;;
19059;SDS011;9663;48.996;8.334;2022-10-31T14:07:59;8.13;;;1.85;;
19059;SDS011;9663;48.996;8.334;2022-10-31T14:10:29;6.80;;;1.95;;
19059;SDS011;9663;48.996;8.334;2022-10-31T14:15:33;5.20;;;1.80;;
19059;SDS011;9663;48.996;8.334;2022-10-31T14:18:05;4.32;;;1.80;;
19059;SDS011;9663;48.996;8.334;2022-10-31T14:20:47;6.20;;;1.75;;
19059;SDS011;9663;48.996;8.334;2022-10-31T14:28:52;4.22;;;1.90;;
19059;SDS011;9663;48.996;8.334;2022-10-31T14:33:52;3.60;;;1.60;;
19059;SDS011;9663;48.996;8.334;2022-10-31T14:36:21;5.38;;;1.80;;
19059;SDS011;9663;48.996;8.334;2022-10-31T14:39:29;5.70;;;1.48;;
19059;SDS011;9663;48.996;8.334;2022-10-31T14:42:27;4.50;;;1.60;;
19059;SDS011;9663;48.996;8.334;2022-10-31T14:45:43;4.07;;;1.70;;
19059;SDS011;9663;48.996;8.334;2022-10-31T14:51:47;4.32;;;1.80;;
19059;SDS011;9663;48.996;8.334;2022-10-31T14:54:15;3.92;;;1.50;;
19059;SDS011;9663;48.996;8.334;2022-10-31T14:56:56;4.90;;;1.50;;
19059;SDS011;9663;48.996;8.334;2022-10-31T14:59:31;6.38;;;1.70;;
19059;SDS011;9663;48.996;8.334;2022-10-31T15:04:57;5.78;;;1.73;;
19059;SDS011;9663;48.996;8.334;2022-10-31T15:07:24;4.60;;;1.70;;
19059;SDS011;9663;48.996;8.334;2022-10-31T15:10:03;4.15;;;1.73;;
19059;SDS011;9663;48.996;8.334;2022-10-31T15:12:43;3.83;;;1.52;;
19059;SDS011;9663;48.996;8.334;2022-10-31T15:15:13;3.78;;;1.63;;
19059;SDS011;9663;48.996;8.334;2022-10-31T15:17:44;6.53;;;1.75;;
19059;SDS011;9663;48.996;8.334;2022-10-31T15:20:23;4.28;;;1.60;;
19059;SDS011;9663;48.996;8.334;2022-10-31T15:22:56;5.00;;;1.95;;
19059;SDS011;9663;48.996;8.334;2022-10-31T15:25:24;5.15;;;1.90;;
19059;SDS011;9663;48.996;8.334;2022-10-31T15:27:56;4.32;;;1.85;;
19059;SDS011;9663;48.996;8.334;2022-10-31T15:30:23;4.80;;;1.75;;
19059;SDS011;9663;48.996;8.334;2022-10-31T15:32:52;5.47;;;1.95;;
19059;SDS011;9663;48.996;8.334;2022-10-31T15:35:22;4.50;;;1.55;;
19059;SDS011;9663;48.996;8.334;2022-10-31T15:37:54;3.60;;;1.50;;
19059;SDS011;9663;48.996;8.334;2022-10-31T15:40:23;3.28;;;1.42;;
19059;SDS011;9663;48.996;8.334;2022-10-31T15:42:55;4.15;;;1.58;;
19059;SDS011;9663;48.996;8.334;2022-10-31T15:45:28;4.85;;;1.77;;
19059;SDS011;9663;48.996;8.334;2022-10-31T15:47:56;4.07;;;1.73;;
19059;SDS011;9663;48.996;8.334;2022-10-31T15:50:30;6.72;;;2.00;;
19059;SDS011;9663;48.996;8.334;2022-10-31T15:53:02;4.55;;;1.38;;
19059;SDS011;9663;48.996;8.334;2022-10-31T15:55:32;4.40;;;1.85;;
19059;SDS011;9663;48.996;8.334;2022-10-31T15:58:10;3.80;;;1.30;;
19059;SDS011;9663;48.996;8.334;2022-10-31T16:00:39;4.75;;;1.58;;
19059;SDS011;9663;48.996;8.334;2022-10-31T16:03:07;5.00;;;1.60;;
19059;SDS011;9663;48.996;8.334;2022-10-31T16:05:44;4.78;;;1.52;;
19059;SDS011;9663;48.996;8.334;2022-10-31T16:10:55;4.57;;;1.40;;
19059;SDS011;9663;48.996;8.334;2022-10-31T16:13:31;4.40;;;1.70;;
19059;SDS011;9663;48.996;8.334;2022-10-31T16:16:01;4.93;;;1.85;;
19059;SDS011;9663;48.996;8.334;2022-10-31T16:18:36;4.78;;;2.13;;
19059;SDS011;9663;48.996;8.334;2022-10-31T16:21:06;5.88;;;2.58;;
19059;SDS011;9663;48.996;8.334;2022-10-31T16:23:33;5.70;;;2.22;;
19059;SDS011;9663;48.996;8.334;2022-10-31T16:25:59;5.22;;;2.25;;
19059;SDS011;9663;48.996;8.334;2022-10-31T16:28:36;4.78;;;2.03;;
19059;SDS011;9663;48.996;8.334;2022-10-31T16:31:11;4.45;;;2.03;;
19059;SDS011;9663;48.996;8.334;2022-10-31T16:33:39;4.45;;;1.70;;
19059;SDS011;9663;48.996;8.334;2022-10-31T16:38:53;4.28;;;1.80;;
19059;SDS011;9663;48.996;8.334;2022-10-31T16:41:19;4.80;;;1.90;;
19059;SDS011;9663;48.996;8.334;2022-10-31T16:43:46;5.18;;;2.13;;
19059;SDS011;9663;48.996;8.334;2022-10-31T16:46:15;4.18;;;1.77;;
19059;SDS011;9663;48.996;8.334;2022-10-31T16:48:52;5.28;;;2.00;;
19059;SDS011;9663;48.996;8.334;2022-10-31T16:51:19;5.82;;;2.05;;
19059;SDS011;9663;48.996;8.334;2022-10-31T16:53:45;4.10;;;1.80;;
19059;SDS011;9663;48.996;8.334;2022-10-31T16:56:15;5.10;;;1.80;;
19059;SDS011;9663;48.996;8.334;2022-10-31T16:58:56;5.05;;;1.83;;
19059;SDS011;9663;48.996;8.334;2022-10-31T17:01:24;4.75;;;1.73;;
19059;SDS011;9663;48.996;8.334;2022-10-31T17:03:50;4.50;;;1.70;;
19059;SDS011;9663;48.996;8.334;2022-10-31T17:06:15;4.20;;;1.80;;
19059;SDS011;9663;48.996;8.334;2022-10-31T17:08:41;5.68;;;2.20;;
19059;SDS011;9663;48.996;8.334;2022-10-31T17:11:08;5.82;;;2.17;;
19059;SDS011;9663;48.996;8.334;2022-10-31T17:13:46;4.63;;;1.60;;
19059;SDS011;9663;48.996;8.334;2022-10-31T17:16:12;5.78;;;1.77;;
19059;SDS011;9663;48.996;8.334;2022-10-31T17:18:41;4.20;;;1.80;;
19059;SDS011;9663;48.996;8.334;2022-10-31T17:21:14;4.25;;;1.88;;
19059;SDS011;9663;48.996;8.334;2022-10-31T17:23:47;4.72;;;2.00;;
19059;SDS011;9663;48.996;8.334;2022-10-31T17:26:14;3.95;;;1.60;;
19059;SDS011;9663;48.996;8.334;2022-10-31T17:28:40;4.35;;;1.58;;
19059;SDS011;9663;48.996;8.334;2022-10-31T17:31:07;4.63;;;2.10;;
19059;SDS011;9663;48.996;8.334;2022-10-31T17:33:44;5.43;;;1.92;;
19059;SDS011;9663;48.996;8.334;2022-10-31T17:36:10;4.68;;;1.92;;
19059;SDS011;9663;48.996;8.334;2022-10-31T17:38:36;4.93;;;1.77;;
19059;SDS011;9663;48.996;8.334;2022-10-31T17:41:05;4.70;;;2.10;;
19059;SDS011;9663;48.996;8.334;2022-10-31T17:43:32;6.50;;;2.17;;
19059;SDS011;9663;48.996;8.334;2022-10-31T17:45:58;4.70;;;2.10;;
19059;SDS011;9663;48.996;8.334;2022-10-31T17:48:27;4.65;;;2.08;;